createdAt,value
2019-01-08T00:01:54.852Z,8.30
2019-01-08T00:04:23.749Z,8.30
2019-01-08T00:06:52.696Z,8.20
2019-01-08T00:09:21.647Z,8.30
2019-01-08T00:11:50.449Z,8.20
2019-01-08T00:14:19.294Z,8.20
2019-01-08T00:16:48.191Z,8.20
2019-01-08T00:19:16.981Z,8.10
2019-01-08T00:21:45.856Z,8.10
2019-01-08T00:24:14.899Z,8.00
2019-01-08T00:26:43.860Z,8.00
2019-01-08T00:29:12.651Z,8.00
2019-01-08T00:31:41.758Z,7.90
2019-01-08T00:34:10.591Z,7.90
2019-01-08T00:36:39.424Z,7.90
2019-01-08T00:39:08.393Z,7.90
2019-01-08T00:41:37.267Z,7.90
2019-01-08T00:44:06.084Z,7.90
2019-01-08T00:46:34.985Z,7.80
2019-01-08T00:49:03.799Z,7.80
2019-01-08T00:51:33.616Z,7.80
2019-01-08T00:54:02.706Z,7.90
2019-01-08T00:56:31.503Z,7.80
2019-01-08T00:59:00.604Z,7.80
2019-01-08T01:01:29.548Z,7.80
2019-01-08T01:03:58.474Z,7.80
2019-01-08T01:06:27.287Z,7.70
2019-01-08T01:08:56.286Z,7.70
2019-01-08T01:11:25.245Z,7.70
2019-01-08T01:13:54.039Z,7.70
2019-01-08T01:16:22.968Z,7.70
2019-01-08T01:18:51.857Z,7.60
2019-01-08T01:21:20.638Z,7.60
2019-01-08T01:23:49.656Z,7.70
2019-01-08T01:26:18.488Z,7.60
2019-01-08T01:28:47.397Z,7.60
2019-01-08T01:31:16.457Z,7.60
2019-01-08T01:33:45.439Z,7.60
2019-01-08T01:36:14.221Z,7.70
2019-01-08T01:38:43.172Z,7.70
2019-01-08T01:41:12.045Z,7.60
2019-01-08T01:43:40.888Z,7.60
2019-01-08T01:46:10.036Z,7.60
2019-01-08T01:48:38.831Z,7.60
2019-01-08T01:51:07.709Z,7.60
2019-01-08T01:53:36.658Z,7.60
2019-01-08T01:56:05.474Z,7.60
2019-01-08T01:58:34.273Z,7.60
2019-01-08T02:01:03.290Z,7.50
2019-01-08T02:03:32.284Z,7.50
2019-01-08T02:06:01.142Z,7.40
2019-01-08T02:08:30.141Z,7.50
2019-01-08T02:10:58.992Z,7.60
2019-01-08T02:13:27.799Z,7.60
2019-01-08T02:15:57.000Z,7.50
2019-01-08T02:18:25.802Z,7.50
2019-01-08T02:20:54.596Z,7.40
2019-01-08T02:23:23.581Z,7.40
2019-01-08T02:25:52.457Z,7.50
2019-01-08T02:28:21.379Z,7.40
2019-01-08T02:30:50.429Z,7.50
2019-01-08T02:33:19.223Z,7.40
2019-01-08T02:35:48.185Z,7.40
2019-01-08T02:38:17.055Z,7.40
2019-01-08T02:40:45.956Z,7.40
2019-01-08T02:43:14.745Z,7.50
2019-01-08T02:45:43.793Z,7.50
2019-01-08T02:48:12.692Z,7.40
2019-01-08T02:50:41.491Z,7.40
2019-01-08T02:53:10.472Z,7.40
2019-01-08T02:55:39.295Z,7.40
2019-01-08T02:58:08.076Z,7.40
2019-01-08T03:00:37.059Z,7.40
2019-01-08T03:03:05.916Z,7.50
2019-01-08T03:05:34.748Z,7.40
2019-01-08T03:08:03.975Z,7.40
2019-01-08T03:10:32.795Z,7.50
2019-01-08T03:13:01.659Z,7.50
2019-01-08T03:15:30.626Z,7.50
2019-01-08T03:17:59.422Z,7.50
2019-01-08T03:20:28.287Z,7.60
2019-01-08T03:22:57.157Z,7.60
2019-01-08T03:25:25.952Z,7.60
2019-01-08T03:27:54.759Z,7.60
2019-01-08T03:30:23.666Z,7.60
2019-01-08T03:32:52.492Z,7.60
2019-01-08T03:35:21.283Z,7.60
2019-01-08T03:37:50.208Z,7.70
2019-01-08T03:40:19.129Z,7.60
2019-01-08T03:42:47.950Z,7.60
2019-01-08T03:45:16.963Z,7.60
2019-01-08T03:47:45.827Z,7.60
2019-01-08T03:50:14.777Z,7.60
2019-01-08T03:52:43.871Z,7.60
2019-01-08T03:55:12.748Z,7.50
2019-01-08T03:57:41.577Z,7.50
2019-01-08T04:00:11.679Z,7.50
2019-01-08T04:02:40.509Z,7.50
2019-01-08T04:05:09.488Z,7.50
2019-01-08T04:07:38.413Z,7.50
2019-01-08T04:10:08.113Z,7.50
2019-01-08T04:12:37.089Z,7.60
2019-01-08T04:15:06.289Z,7.50
2019-01-08T04:17:35.096Z,7.60
2019-01-08T04:20:04.109Z,7.70
2019-01-08T04:22:33.047Z,7.80
2019-01-08T04:25:01.938Z,7.70
2019-01-08T04:27:30.807Z,7.80
2019-01-08T04:30:00.098Z,7.80
2019-01-08T04:32:28.957Z,8.00
2019-01-08T04:34:57.803Z,8.00
2019-01-08T04:37:26.736Z,7.90
2019-01-08T04:39:55.547Z,7.90
2019-01-08T04:42:24.421Z,7.90
2019-01-08T04:44:53.579Z,7.90
2019-01-08T04:47:22.453Z,8.00
2019-01-08T04:49:51.272Z,8.10
2019-01-08T04:52:20.150Z,8.10
2019-01-08T04:54:48.952Z,8.20
2019-01-08T04:57:17.790Z,8.20
2019-01-08T04:59:46.784Z,8.10
2019-01-08T05:02:15.684Z,8.20
2019-01-08T05:04:44.539Z,8.20
2019-01-08T05:07:13.437Z,8.20
2019-01-08T05:09:42.332Z,8.20
2019-01-08T05:12:11.149Z,8.10
2019-01-08T05:14:40.158Z,8.20
2019-01-08T05:17:09.157Z,8.20
2019-01-08T05:19:38.057Z,8.10
2019-01-08T05:22:07.082Z,8.10
2019-01-08T05:24:35.888Z,8.10
2019-01-08T05:27:04.681Z,8.00
2019-01-08T05:29:33.677Z,8.00
2019-01-08T05:32:02.533Z,8.10
2019-01-08T05:34:31.337Z,8.10
2019-01-08T05:37:00.391Z,8.20
2019-01-08T05:39:29.171Z,8.10
2019-01-08T05:41:58.046Z,8.20
2019-01-08T05:44:26.964Z,8.30
2019-01-08T05:46:57.129Z,8.20
2019-01-08T05:49:26.664Z,8.20
2019-01-08T05:51:55.663Z,8.30
2019-01-08T05:54:24.624Z,8.30
2019-01-08T05:56:53.415Z,8.20
2019-01-08T05:59:22.396Z,8.10
2019-01-08T06:01:51.213Z,8.00
2019-01-08T06:04:20.064Z,7.90
2019-01-08T06:06:49.003Z,8.00
2019-01-08T06:09:17.813Z,7.90
2019-01-08T06:11:46.637Z,7.60
2019-01-08T06:14:15.717Z,7.40
2019-01-08T06:16:44.636Z,7.40
2019-01-08T06:19:13.646Z,7.30
2019-01-08T06:21:42.507Z,7.30
2019-01-08T06:24:11.365Z,7.30
2019-01-08T06:26:40.268Z,7.30
2019-01-08T06:29:09.257Z,7.20
2019-01-08T06:31:38.124Z,7.10
2019-01-08T06:34:06.955Z,7.10
2019-01-08T06:36:40.027Z,7.10
2019-01-08T06:39:10.437Z,7.00
2019-01-08T06:41:44.196Z,7.00
2019-01-08T06:44:14.000Z,6.90
2019-01-08T06:46:47.233Z,6.90
2019-01-08T06:49:16.225Z,6.90
2019-01-08T06:51:45.055Z,6.80
2019-01-08T06:54:13.999Z,6.80
2019-01-08T06:56:42.942Z,6.90
2019-01-08T06:59:11.771Z,6.80
2019-01-08T07:01:41.247Z,6.90
2019-01-08T07:04:10.131Z,7.00
2019-01-08T07:06:38.982Z,6.90
2019-01-08T07:09:08.156Z,6.90
2019-01-08T07:11:36.966Z,6.90
2019-01-08T07:14:05.772Z,6.90
2019-01-08T07:16:34.728Z,6.80
2019-01-08T07:19:03.516Z,6.90
2019-01-08T07:21:32.471Z,6.90
2019-01-08T07:24:01.565Z,7.00
2019-01-08T07:26:30.449Z,7.10
2019-01-08T07:28:59.294Z,7.30
2019-01-08T07:31:28.314Z,7.50
2019-01-08T07:33:57.183Z,7.60
2019-01-08T07:36:25.977Z,7.50
2019-01-08T07:38:55.097Z,7.50
2019-01-08T07:41:23.913Z,7.50
2019-01-08T07:43:52.710Z,7.50
2019-01-08T07:46:21.593Z,7.50
2019-01-08T07:48:50.396Z,7.50
2019-01-08T07:51:19.224Z,7.40
2019-01-08T07:53:48.217Z,7.40
2019-01-08T07:56:17.187Z,7.40
2019-01-08T07:58:45.991Z,7.40
2019-01-08T08:01:15.072Z,7.40
2019-01-08T08:03:43.897Z,7.40
2019-01-08T08:06:12.705Z,7.40
2019-01-08T08:08:41.733Z,7.40
2019-01-08T08:11:10.516Z,7.40
2019-01-08T08:13:39.461Z,7.40
2019-01-08T08:16:08.478Z,7.40
2019-01-08T08:18:37.320Z,7.40
2019-01-08T08:21:06.153Z,7.50
2019-01-08T08:23:35.165Z,7.50
2019-01-08T08:26:04.135Z,7.70
2019-01-08T08:28:32.926Z,7.80
2019-01-08T08:31:01.889Z,7.70
2019-01-08T08:33:30.661Z,7.80
2019-01-08T08:35:59.461Z,7.80
2019-01-08T08:38:28.720Z,7.90
2019-01-08T08:40:57.513Z,8.00
2019-01-08T08:43:26.297Z,8.10
2019-01-08T08:45:55.383Z,8.10
2019-01-08T08:48:24.168Z,8.10
2019-01-08T08:50:53.364Z,8.10
2019-01-08T08:53:22.326Z,8.10
2019-01-08T08:55:51.207Z,8.20
2019-01-08T08:58:20.288Z,8.20
2019-01-08T09:00:49.314Z,8.10
2019-01-08T09:03:18.152Z,8.10
2019-01-08T09:05:46.952Z,8.20
2019-01-08T09:08:15.981Z,8.10
2019-01-08T09:10:44.854Z,8.10
2019-01-08T09:13:13.817Z,8.10
2019-01-08T09:15:43.041Z,8.10
2019-01-08T09:18:11.847Z,8.20
2019-01-08T09:20:40.650Z,8.20
2019-01-08T09:23:09.623Z,8.20
2019-01-08T09:25:38.474Z,8.20
2019-01-08T09:28:07.271Z,8.10
2019-01-08T09:30:36.271Z,8.10
2019-01-08T09:33:05.469Z,8.00
2019-01-08T09:35:34.308Z,7.90
2019-01-08T09:38:03.325Z,7.90
2019-01-08T09:40:32.138Z,7.90
2019-01-08T09:43:01.009Z,8.00
2019-01-08T09:45:30.013Z,8.00
2019-01-08T09:47:58.819Z,8.10
2019-01-08T09:50:27.623Z,8.10
2019-01-08T09:52:56.571Z,8.20
2019-01-08T09:55:25.442Z,8.20
2019-01-08T09:57:54.223Z,8.30
2019-01-08T10:00:23.415Z,8.40
2019-01-08T10:02:52.193Z,8.30
2019-01-08T10:05:21.372Z,8.20
2019-01-08T10:07:50.329Z,8.00
2019-01-08T10:10:19.179Z,7.90
2019-01-08T10:12:47.962Z,7.90
2019-01-08T10:15:17.165Z,7.90
2019-01-08T10:17:46.044Z,7.90
2019-01-08T10:20:14.845Z,7.90
2019-01-08T10:22:43.831Z,8.00
2019-01-08T10:25:12.753Z,8.00
2019-01-08T10:27:41.622Z,7.90
2019-01-08T10:30:11.154Z,7.80
2019-01-08T10:32:40.028Z,7.70
2019-01-08T10:35:08.973Z,7.70
2019-01-08T10:37:38.084Z,7.80
2019-01-08T10:40:07.468Z,7.80
2019-01-08T10:42:36.253Z,7.90
2019-01-08T10:45:05.321Z,8.00
2019-01-08T10:47:34.141Z,8.10
2019-01-08T10:50:02.934Z,8.20
2019-01-08T10:52:31.835Z,8.30
2019-01-08T10:55:00.848Z,8.40
2019-01-08T10:57:29.652Z,8.30
2019-01-08T10:59:58.569Z,8.40
2019-01-08T11:02:27.506Z,8.30
2019-01-08T11:04:56.332Z,8.50
2019-01-08T11:07:25.353Z,8.70
2019-01-08T11:09:54.607Z,8.60
2019-01-08T11:12:23.395Z,8.60
2019-01-08T11:14:52.492Z,8.60
2019-01-08T11:17:21.379Z,8.60
2019-01-08T11:19:50.178Z,8.60
2019-01-08T11:22:19.168Z,8.50
2019-01-08T11:24:47.977Z,8.50
2019-01-08T11:27:16.905Z,8.40
2019-01-08T11:29:45.905Z,8.50
2019-01-08T11:32:14.703Z,8.50
2019-01-08T11:34:43.489Z,8.60
2019-01-08T11:37:12.483Z,8.60
2019-01-08T11:39:41.331Z,8.60
2019-01-08T11:42:10.119Z,8.60
2019-01-08T11:44:39.347Z,8.60
2019-01-08T11:47:08.136Z,8.70
2019-01-08T11:49:36.939Z,8.80
2019-01-08T11:52:06.065Z,8.90
2019-01-08T11:54:40.862Z,8.80
2019-01-08T11:57:05.430Z,8.80
2019-01-08T11:59:34.275Z,8.90
2019-01-08T12:02:03.207Z,8.90
2019-01-08T12:04:32.027Z,9.00
2019-01-08T12:07:01.061Z,8.90
2019-01-08T12:09:29.978Z,8.90
2019-01-08T12:11:59.445Z,8.90
2019-01-08T12:14:28.531Z,8.90
2019-01-08T12:16:57.444Z,8.90
2019-01-08T12:19:29.273Z,8.80
2019-01-08T12:21:58.087Z,8.80
2019-01-08T12:24:27.023Z,8.80
2019-01-08T12:26:56.486Z,8.80
2019-01-08T12:29:25.347Z,8.80
2019-01-08T12:31:55.797Z,8.70
2019-01-08T12:34:25.178Z,8.70
2019-01-08T12:36:54.116Z,8.60
2019-01-08T12:39:23.136Z,8.60
2019-01-08T12:41:52.132Z,8.60
2019-01-08T12:44:20.949Z,8.60
2019-01-08T12:46:49.872Z,8.60
2019-01-08T12:49:19.025Z,8.60
2019-01-08T12:51:47.849Z,8.60
2019-01-08T12:54:16.739Z,8.60
2019-01-08T12:56:45.714Z,8.60
2019-01-08T12:59:14.610Z,8.60
2019-01-08T13:01:43.559Z,8.60
2019-01-08T13:04:13.871Z,8.60
2019-01-08T13:06:43.738Z,8.60
2019-01-08T13:09:12.825Z,8.60
2019-01-08T13:11:41.668Z,8.60
2019-01-08T13:14:10.504Z,8.60
2019-01-08T13:16:39.479Z,8.70
2019-01-08T13:19:08.368Z,8.60
2019-01-08T13:21:37.243Z,8.70
2019-01-08T13:24:06.446Z,8.60
2019-01-08T13:26:35.341Z,8.60
2019-01-08T13:29:04.162Z,8.70
2019-01-08T13:31:33.160Z,8.60
2019-01-08T13:34:01.979Z,8.60
2019-01-08T13:36:30.852Z,8.60
2019-01-08T13:38:59.773Z,8.50
2019-01-08T13:41:28.820Z,8.50
2019-01-08T13:43:57.728Z,8.40
2019-01-08T13:46:26.738Z,8.30
2019-01-08T13:48:55.570Z,8.20
2019-01-08T13:51:24.406Z,8.10
2019-01-08T13:53:53.488Z,8.00
2019-01-08T13:56:22.269Z,8.00
2019-01-08T13:58:51.091Z,7.90
2019-01-08T14:01:20.151Z,7.90
2019-01-08T14:03:48.959Z,8.00
2019-01-08T14:06:18.040Z,8.10
2019-01-08T14:08:47.221Z,8.10
2019-01-08T14:11:16.079Z,8.10
2019-01-08T14:13:45.030Z,8.10
2019-01-08T14:16:14.108Z,8.20
2019-01-08T14:18:43.048Z,8.10
2019-01-08T14:21:12.003Z,8.10
2019-01-08T14:23:40.981Z,8.20
2019-01-08T14:26:10.044Z,8.20
2019-01-08T14:28:39.060Z,8.10
2019-01-08T14:31:08.049Z,8.20
2019-01-08T14:33:37.213Z,8.20
2019-01-08T14:36:06.012Z,8.20
2019-01-08T14:38:35.029Z,8.20
2019-01-08T14:41:04.044Z,8.20
2019-01-08T14:43:32.935Z,8.10
2019-01-08T14:46:04.353Z,8.10
2019-01-08T14:48:37.726Z,8.20
2019-01-08T14:51:05.918Z,8.20
2019-01-08T14:53:34.745Z,8.20
2019-01-08T14:56:03.617Z,8.10
2019-01-08T14:58:32.808Z,8.10
2019-01-08T15:01:01.697Z,8.00
2019-01-08T15:03:30.522Z,7.90
2019-01-08T15:06:00.024Z,7.90
2019-01-08T15:08:28.849Z,7.80
2019-01-08T15:10:57.703Z,7.90
2019-01-08T15:13:26.633Z,7.90
2019-01-08T15:15:55.483Z,7.90
2019-01-08T15:18:24.361Z,7.80
2019-01-08T15:20:53.405Z,7.80
2019-01-08T15:23:22.214Z,7.70
2019-01-08T15:25:51.214Z,7.90
2019-01-08T15:28:25.223Z,7.80
2019-01-08T15:30:54.341Z,7.90
2019-01-08T15:33:23.184Z,7.90
2019-01-08T15:35:52.398Z,7.90
2019-01-08T15:38:21.264Z,7.80
2019-01-08T15:40:50.076Z,7.80
2019-01-08T15:43:19.129Z,7.80
2019-01-08T15:45:48.041Z,7.70
2019-01-08T15:48:17.081Z,7.70
2019-01-08T15:50:46.161Z,7.70
2019-01-08T15:53:15.000Z,7.70
2019-01-08T15:55:43.800Z,7.70
2019-01-08T15:58:12.835Z,7.70
2019-01-08T16:00:41.904Z,7.70
2019-01-08T16:03:10.912Z,7.70
2019-01-08T16:05:40.228Z,7.60
2019-01-08T16:08:09.021Z,7.60
2019-01-08T16:10:37.826Z,7.60
2019-01-08T16:13:06.979Z,7.50
2019-01-08T16:15:35.899Z,7.60
2019-01-08T16:18:04.768Z,7.60
2019-01-08T16:20:33.843Z,7.70
2019-01-08T16:23:02.875Z,7.60
2019-01-08T16:25:31.760Z,7.60
2019-01-08T16:28:01.107Z,7.50
2019-01-08T16:30:29.985Z,7.50
2019-01-08T16:32:58.824Z,7.50
2019-01-08T16:35:28.043Z,7.30
2019-01-08T16:37:56.897Z,7.30
2019-01-08T16:40:25.877Z,7.20
2019-01-08T16:42:55.004Z,7.20
2019-01-08T16:45:23.852Z,7.10
2019-01-08T16:47:52.851Z,7.20
2019-01-08T16:50:21.772Z,7.20
2019-01-08T16:52:50.578Z,7.20
2019-01-08T16:55:19.455Z,7.30
2019-01-08T16:57:48.458Z,7.20
2019-01-08T17:00:17.332Z,7.20
2019-01-08T17:02:46.245Z,7.20
2019-01-08T17:05:15.319Z,7.20
2019-01-08T17:07:45.311Z,7.20
2019-01-08T17:10:14.672Z,7.20
2019-01-08T17:12:44.928Z,7.20
2019-01-08T17:15:13.840Z,7.20
2019-01-08T17:17:42.939Z,7.20
2019-01-08T17:20:12.270Z,7.30
2019-01-08T17:22:41.440Z,7.30
2019-01-08T17:25:15.641Z,7.30
2019-01-08T17:27:45.797Z,7.20
2019-01-08T17:30:17.483Z,7.20
2019-01-08T17:32:49.522Z,7.10
2019-01-08T17:35:21.750Z,7.10
2019-01-08T17:37:53.067Z,7.20
2019-01-08T17:40:25.404Z,7.20
2019-01-08T17:42:57.479Z,7.20
2019-01-08T17:45:27.847Z,7.30
2019-01-08T17:47:59.067Z,7.20
2019-01-08T17:50:30.117Z,7.20
2019-01-08T17:53:01.325Z,7.20
2019-01-08T17:55:33.983Z,7.20
2019-01-08T17:58:48.055Z,7.40
2019-01-08T18:01:24.356Z,7.30
2019-01-08T18:03:56.269Z,7.20
2019-01-08T18:06:28.847Z,7.30
2019-01-08T18:09:01.194Z,7.20
2019-01-08T18:11:31.602Z,7.20
2019-01-08T18:14:02.448Z,7.20
2019-01-08T18:16:33.953Z,7.20
2019-01-08T18:19:05.694Z,7.20
2019-01-08T18:21:39.293Z,7.30
2019-01-08T18:24:11.096Z,7.30
2019-01-08T18:26:40.154Z,7.40
2019-01-08T18:29:09.141Z,7.40
2019-01-08T18:31:38.483Z,7.30
2019-01-08T18:34:07.460Z,7.30
2019-01-08T18:36:36.304Z,7.10
2019-01-08T18:39:07.149Z,7.10
2019-01-08T18:41:36.207Z,7.20
2019-01-08T18:44:07.144Z,7.00
2019-01-08T18:46:35.941Z,7.00
2019-01-08T18:49:04.935Z,6.90
2019-01-08T18:51:33.755Z,6.90
2019-01-08T18:54:02.735Z,6.90
2019-01-08T18:56:31.781Z,7.00
2019-01-08T18:59:00.623Z,7.00
2019-01-08T19:01:29.541Z,7.10
2019-01-08T19:04:00.007Z,7.10
2019-01-08T19:06:29.077Z,7.00
2019-01-08T19:09:23.187Z,7.10
2019-01-08T19:11:52.509Z,7.10
2019-01-08T19:14:22.709Z,7.10
2019-01-08T19:16:52.301Z,7.00
2019-01-08T19:19:21.581Z,7.00
2019-01-08T19:21:51.203Z,6.90
2019-01-08T19:24:20.243Z,6.90
2019-01-08T19:26:49.416Z,7.00
2019-01-08T19:29:18.701Z,6.90
2019-01-08T19:31:47.972Z,6.90
2019-01-08T19:34:16.876Z,6.90
2019-01-08T19:36:45.714Z,6.90
2019-01-08T19:39:15.887Z,6.90
2019-01-08T19:41:44.895Z,6.80
2019-01-08T19:44:13.833Z,6.90
2019-01-08T19:46:42.858Z,6.80
2019-01-08T19:49:11.737Z,6.80
2019-01-08T19:51:40.550Z,6.80
2019-01-08T19:54:09.788Z,6.80
2019-01-08T19:56:38.971Z,6.70
2019-01-08T19:59:07.849Z,6.60
2019-01-08T20:01:36.937Z,6.50
2019-01-08T20:04:05.727Z,6.40
2019-01-08T20:06:34.519Z,6.40
2019-01-08T20:09:04.548Z,6.40
2019-01-08T20:11:33.345Z,6.40
2019-01-08T20:14:02.329Z,6.50
2019-01-08T20:16:31.520Z,6.50
2019-01-08T20:19:00.435Z,6.40
2019-01-08T20:21:29.361Z,6.40
2019-01-08T20:24:06.554Z,6.30
2019-01-08T20:26:37.976Z,6.30
2019-01-08T20:29:12.324Z,6.40
2019-01-08T20:31:44.834Z,6.50
2019-01-08T20:34:26.094Z,6.60
2019-01-08T20:36:51.055Z,6.70
2019-01-08T20:39:23.522Z,6.60
2019-01-08T20:41:54.222Z,6.60
2019-01-08T20:44:26.473Z,6.60
2019-01-08T20:46:58.694Z,6.60
2019-01-08T20:49:31.773Z,6.30
2019-01-08T20:52:03.545Z,6.20
2019-01-08T20:54:34.454Z,6.30
2019-01-08T20:57:09.237Z,6.30
2019-01-08T20:59:40.129Z,6.30
2019-01-08T21:02:11.265Z,6.20
2019-01-08T21:04:44.100Z,6.20
2019-01-08T21:07:17.240Z,6.10
2019-01-08T21:09:48.613Z,6.00
2019-01-08T21:12:21.276Z,6.00
2019-01-08T21:14:52.557Z,5.90
2019-01-08T21:17:24.154Z,5.90
2019-01-08T21:19:55.314Z,5.90
2019-01-08T21:22:26.873Z,5.90
2019-01-08T21:24:59.886Z,5.90
2019-01-08T21:27:32.675Z,6.00
2019-01-08T21:30:05.024Z,6.10
2019-01-08T21:32:39.916Z,6.20
2019-01-08T21:35:12.261Z,6.20
2019-01-08T21:37:45.789Z,6.20
2019-01-08T21:40:22.573Z,6.20
2019-01-08T21:42:55.676Z,6.10
2019-01-08T21:45:28.492Z,6.20
2019-01-08T21:48:00.608Z,6.20
2019-01-08T21:50:33.671Z,6.20
2019-01-08T21:53:06.266Z,6.20
2019-01-08T21:55:40.109Z,6.10
2019-01-08T21:58:15.029Z,5.80
2019-01-08T22:00:48.482Z,5.60
2019-01-08T22:03:20.245Z,5.50
2019-01-08T22:05:53.604Z,5.50
2019-01-08T22:08:25.687Z,5.50
2019-01-08T22:10:58.843Z,5.50
2019-01-08T22:13:30.562Z,5.50
2019-01-08T22:16:06.828Z,5.50
2019-01-08T22:18:38.685Z,5.50
2019-01-08T22:21:10.312Z,5.40
2019-01-08T22:23:42.694Z,5.40
2019-01-08T22:26:17.081Z,5.40
2019-01-08T22:28:50.250Z,5.40
2019-01-08T22:31:22.826Z,5.40
2019-01-08T22:33:55.387Z,5.30
2019-01-08T22:36:27.005Z,5.30
2019-01-08T22:39:02.163Z,5.40
2019-01-08T22:41:34.769Z,5.40
2019-01-08T22:44:06.942Z,5.50
2019-01-08T22:46:40.346Z,5.40
2019-01-08T22:49:14.039Z,5.40
2019-01-08T22:51:47.374Z,5.40
2019-01-08T22:54:16.445Z,5.40
2019-01-08T22:56:45.584Z,5.40
2019-01-08T22:59:15.627Z,5.40
2019-01-08T23:01:47.045Z,5.40
2019-01-08T23:04:17.149Z,5.40
2019-01-08T23:06:46.630Z,5.50
2019-01-08T23:09:16.301Z,5.50
2019-01-08T23:11:45.604Z,5.50
2019-01-08T23:14:15.301Z,5.50
2019-01-08T23:16:44.519Z,5.50
2019-01-08T23:19:17.594Z,5.50
2019-01-08T23:21:46.930Z,5.50
2019-01-08T23:24:20.124Z,5.50
2019-01-08T23:26:53.258Z,5.50
2019-01-08T23:29:26.330Z,5.50
2019-01-08T23:31:59.563Z,5.40
2019-01-08T23:34:33.183Z,5.40
2019-01-08T23:37:06.804Z,5.50
2019-01-08T23:39:38.957Z,5.40
2019-01-08T23:42:11.912Z,5.40
2019-01-08T23:44:44.467Z,5.50
2019-01-08T23:47:17.676Z,5.70
2019-01-08T23:49:50.405Z,5.70
2019-01-08T23:52:31.706Z,5.50
2019-01-08T23:55:05.381Z,5.20
2019-01-08T23:57:38.296Z,5.00
